Time;durP1;ratioP1;P1;durP2;ratioP2;P2;SDS_P1;SDS_P2;PMS_P1;PMS_P2;Temp;Humidity;BMP_temperature;BMP_pressure;BME280_temperature;BME280_humidity;BME280_pressure;Samples;Min_cycle;Max_cycle;Signal;HPM_P1;HPM_P2
2023/07/28 00:00:29;;;;;;;3.80;3.13;;;;;;;20.71;69.89;96501.94;4923687;28;20208;-81
2023/07/28 00:02:54;;;;;;;3.45;3.15;;;;;;;20.69;70.27;96515.50;4926152;28;20261;-81
2023/07/28 00:05:20;;;;;;;4.28;3.75;;;;;;;20.83;69.86;96517.09;4926210;28;20184;-80
2023/07/28 00:07:45;;;;;;;4.15;3.65;;;;;;;20.79;70.25;96516.97;4909770;28;20233;-81
2023/07/28 00:10:11;;;;;;;5.68;3.47;;;;;;;20.71;69.92;96508.00;4924682;28;20136;-81
2023/07/28 00:12:36;;;;;;;3.95;3.30;;;;;;;20.67;70.14;96509.00;4956447;28;20731;-80
2023/07/28 00:15:02;;;;;;;4.55;3.38;;;;;;;20.77;70.29;96519.94;4924687;28;20202;-81
2023/07/28 00:17:27;;;;;;;3.75;3.08;;;;;;;20.74;70.34;96517.16;4927282;28;20191;-81
2023/07/28 00:19:52;;;;;;;3.83;3.17;;;;;;;20.85;69.38;96512.22;4944143;28;20225;-81
2023/07/28 00:22:20;;;;;;;4.97;3.45;;;;;;;20.74;70.05;96515.28;4911779;28;20200;-80
2023/07/28 00:24:46;;;;;;;3.28;2.97;;;;;;;20.74;70.82;96511.88;4912200;28;20207;-80
2023/07/28 00:27:14;;;;;;;3.30;3.00;;;;;;;20.67;70.11;96509.75;4940410;28;20144;-81
2023/07/28 00:29:40;;;;;;;3.00;2.70;;;;;;;20.63;70.21;96492.22;4945400;28;20421;-81
2023/07/28 00:32:06;;;;;;;2.90;2.65;;;;;;;20.78;70.37;96518.06;4912627;28;20213;-81
2023/07/28 00:34:31;;;;;;;3.30;2.95;;;;;;;20.72;70.42;96506.91;4929003;28;20619;-81
2023/07/28 00:36:56;;;;;;;2.88;2.67;;;;;;;20.63;70.11;96500.16;4930142;28;20207;-80
2023/07/28 00:39:22;;;;;;;2.97;2.60;;;;;;;20.63;70.91;96500.94;4931815;28;20208;-81
2023/07/28 00:41:48;;;;;;;2.80;2.60;;;;;;;20.63;70.76;96495.66;4932665;28;20235;-81
2023/07/28 00:44:14;;;;;;;3.72;2.72;;;;;;;20.67;70.63;96504.47;4930585;28;20550;-81
2023/07/28 00:46:40;;;;;;;3.10;2.67;;;;;;;20.68;70.66;96502.59;4912824;28;20211;-80
2023/07/28 00:49:05;;;;;;;3.00;2.67;;;;;;;20.65;70.61;96501.38;4932670;28;20033;-81
2023/07/28 00:51:31;;;;;;;3.72;3.10;;;;;;;20.65;70.63;96501.38;4928826;28;20588;-80
2023/07/28 00:53:59;;;;;;;3.33;3.03;;;;;;;20.63;70.95;96511.53;4959690;28;20700;-81
2023/07/28 00:56:24;;;;;;;3.40;3.10;;;;;;;20.55;70.44;96491.94;4945574;28;20200;-80
2023/07/28 00:58:51;;;;;;;4.70;3.22;;;;;;;20.58;70.88;96499.25;4942796;28;20340;-81
2023/07/28 01:01:16;;;;;;;3.53;3.20;;;;;;;20.66;70.40;96510.09;4973888;23;20207;-79
2023/07/28 01:03:42;;;;;;;4.05;3.65;;;;;;;20.66;70.60;96508.22;4924688;28;20653;-81
2023/07/28 01:06:16;;;;;;;3.90;3.58;;;;;;;20.67;70.57;96512.41;4941274;28;20250;-80
2023/07/28 01:08:47;;;;;;;4.82;4.38;;;;;;;20.67;70.94;96507.13;4932828;28;20251;-81
2023/07/28 01:11:14;;;;;;;6.20;5.18;;;;;;;20.58;70.52;96503.75;4952299;28;20212;-80
2023/07/28 01:13:39;;;;;;;6.78;6.07;;;;;;;20.65;70.23;96506.69;4959445;28;21282;-80
2023/07/28 01:16:05;;;;;;;7.35;5.85;;;;;;;20.61;70.92;96497.81;4929518;28;20207;-80
2023/07/28 01:18:30;;;;;;;6.57;5.82;;;;;;;20.60;70.76;96501.56;4943881;28;20617;-80
2023/07/28 01:20:57;;;;;;;6.70;6.00;;;;;;;20.63;70.76;96500.94;4947999;28;20260;-80
2023/07/28 01:23:33;;;;;;;5.80;5.20;;;;;;;20.72;70.76;96514.09;4929049;28;20181;-80
2023/07/28 01:26:08;;;;;;;6.05;5.45;;;;;;;20.66;71.46;96513.50;4945263;28;20278;-80
2023/07/28 01:28:34;;;;;;;5.47;4.97;;;;;;;20.58;71.13;96499.25;4928346;28;20192;-79
2023/07/28 01:31:06;;;;;;;6.35;4.70;;;;;;;20.66;71.06;96496.88;4938568;28;20223;-80
2023/07/28 01:33:32;;;;;;;4.90;4.40;;;;;;;20.58;71.46;96499.25;4924507;28;20275;-80
2023/07/28 01:36:00;;;;;;;4.70;4.20;;;;;;;20.62;70.63;96493.31;4911588;28;20649;-80
2023/07/28 01:38:27;;;;;;;4.40;4.00;;;;;;;20.60;71.39;96498.91;4926478;28;20196;-80
2023/07/28 01:40:52;;;;;;;5.05;4.03;;;;;;;20.64;70.43;96493.78;4925222;28;20192;-79
2023/07/28 01:43:18;;;;;;;7.43;4.22;;;;;;;20.60;70.56;96488.34;4924772;28;20637;-80
2023/07/28 01:45:45;;;;;;;4.03;3.72;;;;;;;20.63;71.03;96490.38;4922853;28;20307;-79
2023/07/28 01:48:10;;;;;;;3.63;3.20;;;;;;;20.59;71.15;96494.72;4908916;28;20227;-80
2023/07/28 01:50:36;;;;;;;3.72;2.95;;;;;;;20.60;71.33;96496.28;4907745;28;20737;-79
2023/07/28 01:53:02;;;;;;;4.00;3.08;;;;;;;20.60;70.94;96493.63;4930374;28;20189;-80
2023/07/28 01:55:28;;;;;;;4.45;2.95;;;;;;;20.51;71.56;96484.97;4925714;28;20223;-80
2023/07/28 01:57:58;;;;;;;3.33;2.80;;;;;;;20.68;70.99;96495.44;4940219;28;20280;-81
2023/07/28 02:00:24;;;;;;;3.10;2.63;;;;;;;20.65;71.14;96488.16;4937176;28;20377;-80
2023/07/28 02:02:49;;;;;;;3.97;2.53;;;;;;;20.59;70.84;96490.19;4908613;28;20306;-80
2023/07/28 02:05:14;;;;;;;2.05;1.65;;;;;;;20.68;70.30;96487.50;4923830;28;20243;-80
2023/07/28 02:07:40;;;;;;;3.75;1.95;;;;;;;20.58;71.42;96479.97;4909113;28;20195;-80
2023/07/28 02:10:06;;;;;;;3.00;2.55;;;;;;;20.52;71.53;96483.91;4922285;28;20284;-80
2023/07/28 02:12:31;;;;;;;2.55;2.35;;;;;;;20.50;71.29;96480.81;4923706;28;20255;-80
2023/07/28 02:14:56;;;;;;;2.83;1.88;;;;;;;20.43;71.71;96473.41;4938721;28;20211;-80
2023/07/28 02:17:22;;;;;;;3.45;2.17;;;;;;;20.50;71.80;96483.47;4923630;28;20266;-80
2023/07/28 02:19:47;;;;;;;2.03;1.77;;;;;;;20.46;71.57;96470.13;4909362;28;20263;-80
2023/07/28 02:22:13;;;;;;;2.40;1.90;;;;;;;20.39;71.63;96470.63;4921457;28;20281;-79
2023/07/28 02:24:38;;;;;;;2.15;1.90;;;;;;;20.40;72.06;96471.41;4922654;28;20286;-81
2023/07/28 02:27:04;;;;;;;1.73;1.50;;;;;;;20.39;71.70;96480.41;4907197;28;20278;-80
2023/07/28 02:29:29;;;;;;;1.85;1.73;;;;;;;20.46;71.29;96479.91;4922982;28;20199;-80
2023/07/28 02:31:54;;;;;;;1.77;1.65;;;;;;;20.30;72.29;96477.84;4938325;28;20609;-80
2023/07/28 02:34:20;;;;;;;2.25;1.63;;;;;;;20.44;71.87;96482.09;4910941;28;20201;-80
2023/07/28 02:36:45;;;;;;;1.70;1.42;;;;;;;20.28;72.37;96471.38;4922764;28;20274;-79
2023/07/28 02:39:10;;;;;;;2.67;1.98;;;;;;;20.34;72.39;96481.41;4922291;28;20342;-80
2023/07/28 02:41:36;;;;;;;1.90;1.40;;;;;;;20.35;72.20;96474.25;4922891;28;20187;-81
2023/07/28 02:44:02;;;;;;;2.30;1.48;;;;;;;20.38;72.40;96468.31;4935261;28;20242;-81
2023/07/28 02:46:27;;;;;;;1.35;1.25;;;;;;;20.38;72.37;96474.38;4939207;28;20219;-80
2023/07/28 02:48:53;;;;;;;1.27;1.17;;;;;;;20.29;72.48;96472.88;4919731;28;20191;-80
2023/07/28 02:51:18;;;;;;;1.65;1.23;;;;;;;20.26;73.08;96486.78;4922288;28;20200;-80
2023/07/28 02:53:43;;;;;;;1.50;1.40;;;;;;;20.22;72.58;96478.72;4901260;28;20200;-80
2023/07/28 02:56:09;;;;;;;1.70;1.33;;;;;;;20.39;72.03;96475.13;4920149;28;20247;-81
2023/07/28 02:58:35;;;;;;;1.33;1.13;;;;;;;20.48;72.02;96478.50;4905298;28;20203;-80
2023/07/28 03:01:00;;;;;;;1.58;1.10;;;;;;;20.51;71.73;96487.63;4936565;28;20266;-79
2023/07/28 03:03:26;;;;;;;3.15;1.60;;;;;;;20.51;71.99;96485.78;4921710;28;20185;-80
2023/07/28 03:05:52;;;;;;;1.90;1.40;;;;;;;20.40;72.15;96484.63;4921755;28;20184;-80
2023/07/28 03:08:18;;;;;;;1.42;1.15;;;;;;;20.48;72.04;96483.00;4906254;28;20313;-80
2023/07/28 03:10:43;;;;;;;1.35;1.20;;;;;;;20.47;72.07;96486.75;4924945;28;20463;-80
2023/07/28 03:13:08;;;;;;;1.90;1.55;;;;;;;20.45;71.97;96488.94;4936860;28;20161;-80
2023/07/28 03:15:34;;;;;;;1.15;1.05;;;;;;;20.42;72.27;96490.34;4930613;28;20772;-80
2023/07/28 03:17:59;;;;;;;1.55;1.42;;;;;;;20.42;72.05;96486.94;4935884;28;20259;-80
2023/07/28 03:20:25;;;;;;;2.22;1.30;;;;;;;20.51;71.77;96484.97;4943890;28;20642;-80
2023/07/28 03:22:50;;;;;;;2.08;1.17;;;;;;;20.46;72.29;96485.19;4927674;28;20169;-81
2023/07/28 03:25:15;;;;;;;2.38;1.25;;;;;;;20.45;72.10;96486.31;4927757;28;20435;-81
2023/07/28 03:27:41;;;;;;;2.58;1.52;;;;;;;20.40;72.18;96481.97;4928209;28;20160;-81
2023/07/28 03:30:09;;;;;;;1.90;1.17;;;;;;;20.35;72.48;96490.88;4940258;28;20174;-80
2023/07/28 03:32:36;;;;;;;1.30;1.20;;;;;;;20.47;72.47;96492.03;4911775;28;20181;-80
2023/07/28 03:35:01;;;;;;;1.40;1.30;;;;;;;20.39;72.46;96494.44;4908849;28;20682;-81
2023/07/28 03:37:27;;;;;;;2.95;1.20;;;;;;;20.37;72.55;96488.72;4928493;28;20200;-81
2023/07/28 03:39:52;;;;;;;2.08;1.00;;;;;;;20.43;72.29;96489.28;4944145;28;20354;-81
2023/07/28 03:42:17;;;;;;;2.40;1.42;;;;;;;20.41;72.50;96491.47;4926836;28;20263;-82
2023/07/28 03:44:43;;;;;;;1.20;1.10;;;;;;;20.38;72.39;96495.53;4927526;28;20664;-81
2023/07/28 03:47:08;;;;;;;1.67;1.27;;;;;;;20.33;72.63;96494.94;4939184;28;20211;-81
2023/07/28 03:49:33;;;;;;;2.15;1.23;;;;;;;20.20;73.28;96494.91;4913824;28;20184;-81
2023/07/28 03:51:59;;;;;;;0.90;0.90;;;;;;;20.38;72.54;96507.97;4942277;28;20655;-81
2023/07/28 03:54:24;;;;;;;2.50;0.98;;;;;;;20.39;72.91;96499.72;4910306;28;20251;-81
2023/07/28 03:56:50;;;;;;;1.60;1.20;;;;;;;20.46;72.35;96490.47;4941839;28;20151;-81
2023/07/28 03:59:15;;;;;;;1.35;1.25;;;;;;;20.39;72.34;96506.88;4943938;28;20241;-81
2023/07/28 04:01:40;;;;;;;2.00;1.50;;;;;;;20.42;72.65;96494.88;4924096;28;20173;-81
2023/07/28 04:04:06;;;;;;;1.40;1.27;;;;;;;20.43;72.10;96497.19;4939249;28;20274;-80
2023/07/28 04:06:46;;;;;;;1.65;1.30;;;;;;;20.49;72.38;96500.41;4925199;28;20211;-81
2023/07/28 04:09:13;;;;;;;1.50;1.40;;;;;;;20.56;71.98;96505.94;4941597;28;20208;-81
2023/07/28 04:11:38;;;;;;;1.45;1.13;;;;;;;20.51;71.99;96516.72;4911273;28;20672;-81
2023/07/28 04:14:04;;;;;;;2.05;1.30;;;;;;;20.46;72.41;96508.97;4924287;28;20299;-80
2023/07/28 04:16:30;;;;;;;2.13;1.35;;;;;;;20.45;72.23;96515.38;4924948;28;20270;-80
2023/07/28 04:18:56;;;;;;;1.63;1.52;;;;;;;20.58;71.72;96524.94;4938353;28;20461;-81
2023/07/28 04:21:21;;;;;;;1.35;1.25;;;;;;;20.46;72.71;96527.50;4934469;28;20160;-80
2023/07/28 04:24:07;;;;;;;;;;;;;;;20.69;71.61;96528.72;4939025;28;20728;-81
2023/07/28 04:26:33;;;;;;;2.25;1.30;;;;;;;20.57;72.13;96523.38;4926404;28;20181;-80
2023/07/28 04:29:01;;;;;;;1.40;1.25;;;;;;;20.50;72.45;96525.78;4923150;28;20253;-80
2023/07/28 04:31:27;;;;;;;1.40;1.30;;;;;;;20.43;73.39;96528.16;4932067;28;20309;-81
2023/07/28 04:33:52;;;;;;;1.48;1.38;;;;;;;20.43;72.84;96528.94;4908315;28;20355;-81
2023/07/28 04:36:17;;;;;;;2.00;1.30;;;;;;;20.59;72.23;96535.16;4924523;28;20203;-80
2023/07/28 04:38:43;;;;;;;1.75;1.40;;;;;;;20.55;72.34;96526.34;4926990;28;20232;-80
2023/07/28 04:41:08;;;;;;;1.17;1.08;;;;;;;20.53;71.94;96544.41;4926260;28;20262;-80
2023/07/28 04:43:33;;;;;;;1.50;1.40;;;;;;;20.49;72.45;96542.72;4922369;28;20255;-80
2023/07/28 04:45:59;;;;;;;2.70;1.52;;;;;;;20.44;72.73;96545.56;4917902;28;20169;-80
2023/07/28 04:48:24;;;;;;;2.65;1.67;;;;;;;20.42;73.14;96547.75;4924190;28;20275;-79
2023/07/28 04:50:50;;;;;;;1.73;1.50;;;;;;;20.42;73.02;96542.47;4935951;28;20377;-80
2023/07/28 04:53:15;;;;;;;1.60;1.50;;;;;;;20.45;73.09;96542.59;4906403;28;20220;-81
2023/07/28 04:55:40;;;;;;;1.77;1.20;;;;;;;20.53;72.35;96543.63;4940139;28;20614;-80
2023/07/28 04:58:06;;;;;;;2.00;1.20;;;;;;;20.52;72.69;96548.13;4937700;28;20144;-81
2023/07/28 05:00:31;;;;;;;2.05;1.42;;;;;;;20.55;72.41;96554.66;4906295;28;20310;-81
2023/07/28 05:02:56;;;;;;;1.75;1.50;;;;;;;20.63;72.40;96550.41;4925663;28;20204;-80
2023/07/28 05:05:22;;;;;;;1.73;1.17;;;;;;;20.54;72.51;96550.47;4924184;28;20198;-80
2023/07/28 05:07:47;;;;;;;1.60;1.50;;;;;;;20.50;72.54;96547.69;4937193;28;20649;-80
2023/07/28 05:10:13;;;;;;;3.05;1.40;;;;;;;20.48;72.79;96551.78;4905744;28;20185;-80
2023/07/28 05:12:38;;;;;;;1.60;1.50;;;;;;;20.52;72.91;96557.94;4907194;28;20201;-80
2023/07/28 05:15:05;;;;;;;1.77;1.40;;;;;;;20.59;72.37;96561.59;4908674;28;20270;-80
2023/07/28 05:17:30;;;;;;;2.78;1.70;;;;;;;20.59;72.61;96558.19;4905891;28;20196;-80
2023/07/28 05:19:56;;;;;;;2.33;1.80;;;;;;;20.52;72.80;96561.34;4922501;28;20274;-81
2023/07/28 05:22:21;;;;;;;1.83;1.65;;;;;;;20.56;73.12;96553.53;4923427;28;20695;-80
2023/07/28 05:24:46;;;;;;;2.10;1.70;;;;;;;20.50;73.16;96552.22;4939190;28;20282;-80
2023/07/28 05:27:12;;;;;;;1.92;1.75;;;;;;;20.65;72.55;96556.94;4954047;28;20271;-81
2023/07/28 05:29:37;;;;;;;1.70;1.60;;;;;;;20.64;72.21;96557.25;4941526;28;20177;-80
2023/07/28 05:32:03;;;;;;;2.13;1.85;;;;;;;20.64;72.68;96555.38;4925136;28;20303;-81
2023/07/28 05:34:29;;;;;;;1.83;1.73;;;;;;;20.69;72.20;96552.53;4906748;28;20274;-80
2023/07/28 05:36:55;;;;;;;2.30;2.10;;;;;;;20.74;71.89;96554.97;4923986;28;20034;-80
2023/07/28 05:39:20;;;;;;;2.35;2.15;;;;;;;20.75;72.03;96558.38;4924962;28;20349;-81
2023/07/28 05:41:46;;;;;;;2.38;2.15;;;;;;;20.75;72.22;96556.53;4938992;28;20601;-81
2023/07/28 05:44:11;;;;;;;1.75;1.65;;;;;;;20.73;72.55;96552.66;4905094;28;20230;-80
2023/07/28 05:46:36;;;;;;;2.30;2.08;;;;;;;20.71;72.77;96560.16;4904872;28;20707;-81
2023/07/28 05:49:02;;;;;;;2.75;2.35;;;;;;;20.72;72.40;96556.41;4940350;28;20266;-80
2023/07/28 05:51:27;;;;;;;2.22;2.03;;;;;;;20.75;71.52;96553.88;4924737;28;20688;-80
2023/07/28 05:53:53;;;;;;;2.67;2.20;;;;;;;20.71;72.04;96560.91;4923815;28;20272;-80
2023/07/28 05:56:19;;;;;;;2.45;2.25;;;;;;;20.76;72.01;96562.59;4907781;28;20648;-80
2023/07/28 05:58:45;;;;;;;2.47;2.28;;;;;;;20.72;71.98;96569.63;4903632;28;20172;-81
2023/07/28 06:01:11;;;;;;;3.15;2.60;;;;;;;20.75;72.42;96576.91;4904220;28;20695;-81
2023/07/28 06:03:36;;;;;;;2.60;2.40;;;;;;;20.72;72.11;96578.34;4923424;28;20263;-80
2023/07/28 06:06:02;;;;;;;3.33;2.63;;;;;;;20.69;72.77;96586.16;4922942;28;20271;-80
2023/07/28 06:08:28;;;;;;;2.63;2.40;;;;;;;20.73;72.61;96577.25;4918010;28;20355;-80
2023/07/28 06:10:53;;;;;;;3.03;2.22;;;;;;;20.84;72.32;96587.44;4923580;28;20330;-80
2023/07/28 06:13:19;;;;;;;2.88;2.67;;;;;;;20.76;72.39;96586.41;4922831;28;20229;-81
2023/07/28 06:15:44;;;;;;;2.40;2.25;;;;;;;20.80;72.04;96579.34;4908537;28;20138;-80
2023/07/28 06:18:11;;;;;;;3.33;3.10;;;;;;;20.70;72.73;96583.19;4921917;28;20266;-81
2023/07/28 06:20:37;;;;;;;2.72;2.53;;;;;;;20.75;72.65;96585.63;4908802;28;20284;-81
2023/07/28 06:23:02;;;;;;;2.38;2.03;;;;;;;20.85;72.63;96602.19;4905886;28;20761;-80
2023/07/28 06:25:27;;;;;;;2.67;2.47;;;;;;;20.83;72.78;96593.81;4908458;28;20195;-80
2023/07/28 06:27:53;;;;;;;3.17;2.65;;;;;;;20.85;72.70;96594.25;4922342;28;20711;-81
2023/07/28 06:30:18;;;;;;;2.22;2.03;;;;;;;20.87;72.31;96590.22;4922871;28;20199;-81
2023/07/28 06:32:44;;;;;;;1.95;1.85;;;;;;;20.88;73.20;96601.56;4938549;28;20130;-81
2023/07/28 06:35:09;;;;;;;3.50;3.15;;;;;;;20.94;72.16;96598.38;4920540;28;20771;-82
2023/07/28 06:37:37;;;;;;;2.13;1.98;;;;;;;21.01;72.16;96605.78;4934208;28;20730;-80
2023/07/28 06:40:08;;;;;;;2.42;2.08;;;;;;;20.94;72.44;96597.63;4919962;28;20239;-81
2023/07/28 06:42:34;;;;;;;3.13;2.15;;;;;;;21.00;72.07;96606.13;4905784;28;20201;-80
2023/07/28 06:44:59;;;;;;;2.50;2.30;;;;;;;20.96;72.91;96606.00;4924857;28;20291;-80
2023/07/28 06:47:25;;;;;;;2.45;2.25;;;;;;;20.83;73.61;96604.41;4921781;28;20634;-80
2023/07/28 06:49:50;;;;;;;2.15;2.00;;;;;;;20.97;73.01;96609.41;4921518;28;20276;-81
2023/07/28 06:52:15;;;;;;;2.20;2.00;;;;;;;21.01;72.95;96615.59;4940114;28;20642;-80
2023/07/28 06:54:41;;;;;;;2.25;2.05;;;;;;;21.12;72.59;96617.50;4925488;28;20098;-80
2023/07/28 06:57:06;;;;;;;2.80;1.92;;;;;;;21.16;72.68;96611.56;4908017;28;20173;-80
2023/07/28 06:59:32;;;;;;;2.35;2.03;;;;;;;21.37;72.18;96620.25;4922418;28;20548;-80
2023/07/28 07:01:57;;;;;;;2.67;2.08;;;;;;;21.49;71.94;96622.16;4897776;28;20188;-81
2023/07/28 07:04:23;;;;;;;2.38;1.90;;;;;;;21.68;71.52;96621.63;4924146;28;20301;-81
2023/07/28 07:06:48;;;;;;;2.28;1.85;;;;;;;21.80;70.94;96621.63;4939653;28;20185;-81
2023/07/28 07:09:14;;;;;;;1.90;1.80;;;;;;;21.70;71.03;96614.88;4927976;28;20213;-81
2023/07/28 07:11:40;;;;;;;2.30;1.80;;;;;;;21.74;71.06;96625.59;4909852;28;20676;-81
2023/07/28 07:14:09;;;;;;;1.80;1.70;;;;;;;21.78;70.68;96628.34;4938725;28;20581;-80
2023/07/28 07:16:34;;;;;;;2.17;1.70;;;;;;;21.77;69.12;96635.53;4925972;28;20271;-81
2023/07/28 07:19:00;;;;;;;2.25;1.90;;;;;;;21.70;70.12;96624.72;4923542;28;20251;-81
2023/07/28 07:21:27;;;;;;;1.50;1.40;;;;;;;21.78;69.86;96636.31;4938810;28;20785;-81
2023/07/28 07:23:52;;;;;;;1.77;1.67;;;;;;;21.70;70.24;96630.78;4940666;28;20577;-81
2023/07/28 07:26:18;;;;;;;1.95;1.60;;;;;;;21.65;70.90;96636.31;4927302;28;20289;-80
2023/07/28 07:28:43;;;;;;;4.75;2.10;;;;;;;21.66;71.41;96634.41;4927171;28;20137;-80
2023/07/28 07:31:13;;;;;;;2.13;1.88;;;;;;;21.83;70.59;96639.53;4927086;28;20298;-80
2023/07/28 07:33:39;;;;;;;2.17;1.98;;;;;;;21.77;71.08;96626.84;4927571;28;20118;-80
2023/07/28 07:36:04;;;;;;;2.10;1.80;;;;;;;21.81;71.10;96628.47;4928462;28;20392;-80
2023/07/28 07:38:30;;;;;;;3.55;1.88;;;;;;;21.81;71.16;96617.88;4929979;28;20165;-80
2023/07/28 07:40:55;;;;;;;2.17;1.98;;;;;;;21.75;71.63;96634.34;4929725;28;20286;-81
2023/07/28 07:43:21;;;;;;;2.63;1.65;;;;;;;21.91;70.34;96637.88;4909888;28;20289;-79
2023/07/28 07:45:47;;;;;;;1.70;1.60;;;;;;;21.88;70.31;96651.78;4927124;28;20426;-80
2023/07/28 07:48:15;;;;;;;2.00;1.80;;;;;;;21.88;69.90;96647.25;4911530;28;20417;-80
2023/07/28 07:50:41;;;;;;;2.28;1.90;;;;;;;21.79;69.62;96641.28;4942464;28;20373;-80
2023/07/28 07:53:07;;;;;;;2.30;2.10;;;;;;;21.69;70.83;96649.66;4928481;28;20420;-80
2023/07/28 07:55:32;;;;;;;2.28;2.08;;;;;;;21.75;70.12;96656.31;4941263;28;20499;-80
2023/07/28 07:57:58;;;;;;;2.53;2.33;;;;;;;21.66;70.86;96652.97;4911083;28;20033;-79
2023/07/28 08:00:25;;;;;;;2.85;2.45;;;;;;;21.72;71.26;96649.00;4927341;28;20388;-80
2023/07/28 08:02:50;;;;;;;3.97;2.75;;;;;;;21.73;70.63;96655.06;4928078;28;20452;-79
2023/07/28 08:05:16;;;;;;;3.35;2.65;;;;;;;21.80;70.59;96668.56;4909989;28;20431;-79
2023/07/28 08:07:42;;;;;;;3.65;2.80;;;;;;;21.77;71.10;96658.63;4924719;28;20526;-79
2023/07/28 08:10:07;;;;;;;3.05;2.40;;;;;;;21.86;70.89;96654.75;4936440;28;20221;-81
2023/07/28 08:12:33;;;;;;;3.20;2.88;;;;;;;21.84;71.14;96654.31;4938545;28;20193;-81
2023/07/28 08:14:59;;;;;;;3.30;3.00;;;;;;;22.07;70.69;96661.81;4940958;28;20250;-80
2023/07/28 08:17:24;;;;;;;3.15;2.70;;;;;;;22.14;70.76;96667.38;4926002;28;20098;-79
2023/07/28 08:19:50;;;;;;;3.25;2.67;;;;;;;22.06;69.90;96668.25;4929401;28;20208;-80
2023/07/28 08:22:15;;;;;;;2.90;2.70;;;;;;;22.19;70.33;96669.81;4910818;28;20321;-81
2023/07/28 08:24:41;;;;;;;3.20;3.00;;;;;;;22.31;70.74;96673.56;4913591;28;20350;-80
2023/07/28 08:27:06;;;;;;;3.17;2.88;;;;;;;22.29;70.84;96660.63;4928960;28;20087;-79
2023/07/28 08:29:32;;;;;;;3.15;2.85;;;;;;;22.40;70.07;96660.97;4930384;28;20269;-79
2023/07/28 08:31:57;;;;;;;2.67;2.47;;;;;;;22.40;70.25;96671.59;4924542;28;20205;-80
2023/07/28 08:34:23;;;;;;;2.60;2.40;;;;;;;22.40;69.10;96679.53;4913546;28;20439;-81
2023/07/28 08:36:49;;;;;;;2.78;2.58;;;;;;;22.35;70.29;96666.50;4912531;28;20294;-79
2023/07/28 08:39:15;;;;;;;3.58;2.90;;;;;;;22.38;69.60;96666.59;4928744;28;20223;-79
2023/07/28 08:41:41;;;;;;;3.72;3.42;;;;;;;22.33;70.71;96666.84;4928084;28;20512;-79
2023/07/28 08:44:09;;;;;;;3.25;2.90;;;;;;;22.33;70.02;96676.66;4929449;28;20474;-79
2023/07/28 08:46:35;;;;;;;3.60;3.28;;;;;;;22.39;69.71;96665.50;4927845;28;20103;-80
2023/07/28 08:49:01;;;;;;;3.65;3.35;;;;;;;22.48;69.46;96673.31;4940435;28;20496;-79
2023/07/28 08:51:30;;;;;;;3.58;3.28;;;;;;;22.64;68.98;96678.72;4928403;28;20330;-79
2023/07/28 08:53:55;;;;;;;3.55;3.25;;;;;;;22.56;69.72;96677.72;4913115;28;20201;-80
2023/07/28 08:56:21;;;;;;;5.53;4.30;;;;;;;22.36;69.87;96668.84;4943285;28;20630;-79
2023/07/28 08:58:47;;;;;;;3.88;3.58;;;;;;;22.54;69.93;96679.97;4930223;28;20161;-79
2023/07/28 09:01:15;;;;;;;4.60;4.20;;;;;;;22.55;69.96;96673.56;4909658;28;20238;-80
2023/07/28 09:03:41;;;;;;;4.30;3.90;;;;;;;22.59;69.92;96671.75;4910765;28;20358;-80
2023/07/28 09:06:10;;;;;;;4.18;3.88;;;;;;;22.76;69.74;96684.00;4921106;28;20056;-80
2023/07/28 09:08:39;;;;;;;4.28;3.88;;;;;;;22.87;68.79;96683.53;4929490;28;20389;-80
2023/07/28 09:11:06;;;;;;;5.10;4.68;;;;;;;22.73;69.65;96681.25;4944230;28;20393;-81
2023/07/28 09:13:41;;;;;;;4.43;4.03;;;;;;;22.95;69.68;96686.06;4929265;28;20401;-80
2023/07/28 09:16:29;;;;;;;3.90;3.58;;;;;;;23.20;68.35;96672.69;4912713;28;20181;-81
2023/07/28 09:19:08;;;;;;;3.78;3.20;;;;;;;23.23;67.46;96674.69;4930999;28;20199;-80
2023/07/28 09:21:34;;;;;;;3.63;3.33;;;;;;;23.05;67.69;96673.41;4940909;28;20289;-80
2023/07/28 09:24:00;;;;;;;3.47;3.17;;;;;;;;;;4931081;28;20330;-80
2023/07/28 09:26:51;;;;;;;3.85;3.55;;;;;;;23.13;68.08;96688.44;4944622;28;20115;-80
2023/07/28 09:29:18;;;;;;;5.35;3.10;;;;;;;22.99;68.91;96681.59;4911317;28;20229;-80
2023/07/28 09:31:45;;;;;;;3.90;3.47;;;;;;;22.91;68.98;96679.88;4941099;28;20048;-81
2023/07/28 09:34:11;;;;;;;4.28;2.97;;;;;;;22.99;68.41;96684.25;4928945;28;20372;-80
2023/07/28 09:36:38;;;;;;;3.90;3.25;;;;;;;22.95;68.68;96696.66;4929320;28;20393;-80
2023/07/28 09:39:07;;;;;;;3.10;2.80;;;;;;;22.88;69.16;96691.16;4928575;28;20518;-81
2023/07/28 09:41:38;;;;;;;3.53;3.22;;;;;;;22.86;68.87;96695.25;4912404;28;20034;-81
2023/07/28 09:44:05;;;;;;;3.05;2.80;;;;;;;22.85;68.82;96691.84;4942562;28;20295;-80
2023/07/28 09:46:33;;;;;;;2.95;2.72;;;;;;;22.82;69.08;96697.81;4910263;28;20385;-81
2023/07/28 09:49:00;;;;;;;3.25;2.90;;;;;;;22.83;69.18;96691.41;4928612;28;20183;-80
2023/07/28 09:51:30;;;;;;;3.65;3.30;;;;;;;22.80;68.52;96695.47;4941068;28;20123;-80
2023/07/28 09:54:03;;;;;;;3.40;3.10;;;;;;;22.73;69.20;96694.53;4943365;28;20064;-81
2023/07/28 09:56:31;;;;;;;3.53;3.17;;;;;;;22.70;69.57;96708.47;4928378;28;20331;-80
2023/07/28 09:58:58;;;;;;;4.43;3.20;;;;;;;22.58;70.63;96698.63;4943900;28;20214;-79
2023/07/28 10:01:24;;;;;;;3.70;3.40;;;;;;;22.69;69.80;96701.59;4911278;28;20192;-80
2023/07/28 10:03:50;;;;;;;3.60;2.95;;;;;;;22.75;69.28;96700.25;4912876;28;20197;-80
2023/07/28 10:06:17;;;;;;;5.63;3.60;;;;;;;22.66;69.51;96689.00;4945614;28;20026;-80
2023/07/28 10:08:43;;;;;;;4.00;3.53;;;;;;;22.76;68.90;96704.47;4958280;28;20184;-80
2023/07/28 10:11:12;;;;;;;3.60;3.30;;;;;;;22.80;69.04;96705.34;4910050;28;20318;-80
2023/07/28 10:13:46;;;;;;;3.38;3.08;;;;;;;22.98;68.63;96711.16;4943537;28;20256;-81
2023/07/28 10:16:14;;;;;;;3.10;2.90;;;;;;;22.76;69.71;96710.53;4925905;28;20105;-80
2023/07/28 10:18:40;;;;;;;3.30;2.97;;;;;;;22.90;69.02;96714.72;4925203;28;20269;-79
2023/07/28 10:21:13;;;;;;;2.67;2.47;;;;;;;22.93;67.50;96714.81;4942856;28;20677;-80
2023/07/28 10:23:39;;;;;;;2.63;2.42;;;;;;;23.08;66.57;96723.22;4941812;28;20461;-80
2023/07/28 10:26:05;;;;;;;3.40;2.63;;;;;;;23.06;68.71;96722.78;4942873;28;20428;-80
2023/07/28 10:28:40;;;;;;;2.50;2.30;;;;;;;23.36;65.79;96718.69;4911141;28;20219;-80
2023/07/28 10:31:10;;;;;;;2.53;2.33;;;;;;;23.41;65.89;96720.34;4927368;28;20213;-80
2023/07/28 10:33:46;;;;;;;2.13;2.03;;;;;;;23.65;65.81;96721.34;4926267;28;20091;-80
2023/07/28 10:36:22;;;;;;;2.65;2.20;;;;;;;23.58;66.31;96721.91;4925433;28;20187;-80
2023/07/28 10:39:00;;;;;;;2.90;2.50;;;;;;;23.69;66.60;96722.94;4926694;28;20278;-79
2023/07/28 10:41:25;;;;;;;2.70;2.50;;;;;;;23.56;67.81;96724.13;4942253;28;20401;-79
2023/07/28 10:43:51;;;;;;;2.90;2.65;;;;;;;23.53;67.04;96724.81;4937607;28;20176;-79
2023/07/28 10:46:18;;;;;;;2.85;2.65;;;;;;;23.49;67.12;96718.63;4924033;28;20030;-80
2023/07/28 10:48:48;;;;;;;3.03;2.83;;;;;;;23.38;66.90;96727.09;4927482;28;20388;-80
2023/07/28 10:51:31;;;;;;;2.90;2.70;;;;;;;23.49;67.11;96729.25;4905058;28;20516;-81
2023/07/28 10:54:00;;;;;;;2.92;2.72;;;;;;;23.36;65.47;96726.66;4940435;28;20064;-79
2023/07/28 10:56:26;;;;;;;3.13;2.83;;;;;;;23.36;65.74;96731.97;4935696;28;20313;-79
2023/07/28 10:59:02;;;;;;;3.15;2.85;;;;;;;23.39;66.53;96719.91;4937948;28;20547;-79
2023/07/28 11:01:33;;;;;;;2.90;2.70;;;;;;;23.46;65.97;96722.75;4926249;28;20378;-80
2023/07/28 11:04:08;;;;;;;2.78;2.47;;;;;;;23.53;65.84;96722.16;4943231;28;20155;-80
2023/07/28 11:06:34;;;;;;;3.25;2.90;;;;;;;23.45;65.71;96729.16;4908135;28;20129;-80
2023/07/28 11:09:00;;;;;;;3.17;2.97;;;;;;;23.37;66.40;96722.09;4941966;28;20097;-79
2023/07/28 11:11:25;;;;;;;3.17;2.90;;;;;;;23.41;65.89;96728.31;4942109;28;20401;-80
2023/07/28 11:13:51;;;;;;;4.78;2.72;;;;;;;23.25;65.98;96730.88;4911185;28;20277;-79
2023/07/28 11:16:17;;;;;;;2.85;2.55;;;;;;;23.19;65.60;96724.28;4910558;28;20510;-80
2023/07/28 11:18:43;;;;;;;2.38;2.22;;;;;;;23.26;65.72;96735.09;4928653;28;20033;-79
2023/07/28 11:21:08;;;;;;;2.45;2.25;;;;;;;23.18;67.18;96730.69;4938881;28;20029;-80
2023/07/28 11:23:34;;;;;;;2.75;2.55;;;;;;;23.11;66.86;96733.16;4924916;28;20429;-79
2023/07/28 11:25:59;;;;;;;3.50;3.20;;;;;;;23.13;67.10;96736.25;4909894;28;20269;-80
2023/07/28 11:28:25;;;;;;;3.10;2.90;;;;;;;23.14;67.92;96740.47;4911772;28;20444;-79
2023/07/28 11:30:51;;;;;;;3.13;2.92;;;;;;;23.15;68.38;96728.72;4926017;28;20335;-79